sensor_id;sensor_type;location;lat;lon;timestamp;pressure;altitude;pressure_sealevel;temperature;humidity
45939;BME280;31650;48.818;9.116;2023-04-27T00:03:51;98042.25;;;6.24;100.00
45939;BME280;31650;48.818;9.116;2023-04-27T00:18:51;98037.22;;;6.21;100.00
45939;BME280;31650;48.818;9.116;2023-04-27T00:33:51;98030.66;;;6.09;100.00
45939;BME280;31650;48.818;9.116;2023-04-27T00:48:51;98008.19;;;6.23;100.00
45939;BME280;31650;48.818;9.116;2023-04-27T01:03:52;98017.59;;;6.12;100.00
45939;BME280;31650;48.818;9.116;2023-04-27T01:18:52;98017.16;;;6.09;100.00
45939;BME280;31650;48.818;9.116;2023-04-27T01:33:52;98027.22;;;5.85;100.00
45939;BME280;31650;48.818;9.116;2023-04-27T01:48:52;98025.03;;;5.59;100.00
45939;BME280;31650;48.818;9.116;2023-04-27T02:03:53;98030.44;;;5.44;100.00
45939;BME280;31650;48.818;9.116;2023-04-27T02:18:53;98051.16;;;5.44;100.00
45939;BME280;31650;48.818;9.116;2023-04-27T02:33:54;98058.31;;;5.51;100.00
45939;BME280;31650;48.818;9.116;2023-04-27T02:48:54;98051.44;;;5.64;100.00
45939;BME280;31650;48.818;9.116;2023-04-27T03:03:55;98058.84;;;5.76;100.00
45939;BME280;31650;48.818;9.116;2023-04-27T03:18:55;98060.16;;;5.81;100.00
45939;BME280;31650;48.818;9.116;2023-04-27T03:33:56;98054.28;;;5.77;100.00
45939;BME280;31650;48.818;9.116;2023-04-27T03:48:56;98062.75;;;5.74;100.00
45939;BME280;31650;48.818;9.116;2023-04-27T04:03:56;98065.19;;;5.84;100.00
45939;BME280;31650;48.818;9.116;2023-04-27T04:18:56;98056.63;;;5.80;100.00
45939;BME280;31650;48.818;9.116;2023-04-27T04:33:57;98073.75;;;5.87;100.00
45939;BME280;31650;48.818;9.116;2023-04-27T04:48:57;98067.59;;;6.08;100.00
45939;BME280;31650;48.818;9.116;2023-04-27T05:03:57;98074.66;;;6.46;100.00
45939;BME280;31650;48.818;9.116;2023-04-27T05:18:58;98071.31;;;6.87;100.00
45939;BME280;31650;48.818;9.116;2023-04-27T05:33:58;98075.19;;;7.27;100.00
45939;BME280;31650;48.818;9.116;2023-04-27T05:48:58;98064.63;;;8.02;100.00
45939;BME280;31650;48.818;9.116;2023-04-27T06:03:58;98083.59;;;8.57;97.29
45939;BME280;31650;48.818;9.116;2023-04-27T06:19:00;98079.25;;;9.35;89.69
45939;BME280;31650;48.818;9.116;2023-04-27T06:34:00;98083.41;;;10.36;76.53
45939;BME280;31650;48.818;9.116;2023-04-27T06:49:01;98088.00;;;11.13;73.18
45939;BME280;31650;48.818;9.116;2023-04-27T07:04:02;98092.19;;;11.84;67.05
45939;BME280;31650;48.818;9.116;2023-04-27T07:19:02;98091.66;;;12.79;65.42
45939;BME280;31650;48.818;9.116;2023-04-27T07:34:02;98077.16;;;15.07;57.27
45939;BME280;31650;48.818;9.116;2023-04-27T07:49:03;98067.94;;;16.42;51.43
45939;BME280;31650;48.818;9.116;2023-04-27T08:04:03;98081.72;;;15.02;52.02
45939;BME280;31650;48.818;9.116;2023-04-27T08:19:03;98066.88;;;15.82;51.06
45939;BME280;31650;48.818;9.116;2023-04-27T08:34:04;98052.28;;;17.14;47.53
45939;BME280;31650;48.818;9.116;2023-04-27T08:49:05;98044.34;;;15.63;45.96
45939;BME280;31650;48.818;9.116;2023-04-27T09:04:08;98049.16;;;16.07;47.81
45939;BME280;31650;48.818;9.116;2023-04-27T09:19:10;98046.22;;;16.85;45.97
45939;BME280;31650;48.818;9.116;2023-04-27T09:34:10;98056.03;;;17.72;44.23
45939;BME280;31650;48.818;9.116;2023-04-27T09:49:11;98045.03;;;17.35;44.23
45939;BME280;31650;48.818;9.116;2023-04-27T10:19:22;98048.50;;;17.57;43.09
45939;BME280;31650;48.818;9.116;2023-04-27T10:34:23;98038.91;;;18.60;46.24
45939;BME280;31650;48.818;9.116;2023-04-27T10:49:27;98021.34;;;18.77;42.76
45939;BME280;31650;48.818;9.116;2023-04-27T11:04:34;98017.53;;;19.75;43.29
45939;BME280;31650;48.818;9.116;2023-04-27T11:19:44;98018.94;;;18.22;41.85
45939;BME280;31650;48.818;9.116;2023-04-27T11:34:49;98005.56;;;18.51;43.11
45939;BME280;31650;48.818;9.116;2023-04-27T11:49:59;98014.56;;;20.36;41.49
45939;BME280;31650;48.818;9.116;2023-04-27T12:05:00;98002.09;;;18.82;42.66
45939;BME280;31650;48.818;9.116;2023-04-27T12:20:01;97987.75;;;18.85;41.24
45939;BME280;31650;48.818;9.116;2023-04-27T12:35:01;97976.06;;;20.06;41.06
45939;BME280;31650;48.818;9.116;2023-04-27T12:50:01;97968.56;;;21.45;41.74
45939;BME280;31650;48.818;9.116;2023-04-27T13:05:02;97956.22;;;19.98;39.81
45939;BME280;31650;48.818;9.116;2023-04-27T13:20:06;97957.47;;;19.10;44.33
45939;BME280;31650;48.818;9.116;2023-04-27T13:35:07;97946.72;;;19.29;42.42
45939;BME280;31650;48.818;9.116;2023-04-27T13:50:08;97924.66;;;19.40;42.54
45939;BME280;31650;48.818;9.116;2023-04-27T14:05:09;97925.19;;;20.22;41.93
45939;BME280;31650;48.818;9.116;2023-04-27T14:20:10;97928.75;;;19.47;43.12
45939;BME280;31650;48.818;9.116;2023-04-27T14:35:10;97922.16;;;19.43;43.48
45939;BME280;31650;48.818;9.116;2023-04-27T14:50:10;97930.75;;;18.85;43.01
45939;BME280;31650;48.818;9.116;2023-04-27T15:05:11;97937.03;;;19.47;42.95
45939;BME280;31650;48.818;9.116;2023-04-27T15:20:11;97918.75;;;20.87;41.18
45939;BME280;31650;48.818;9.116;2023-04-27T15:35:12;97906.13;;;21.10;39.54
45939;BME280;31650;48.818;9.116;2023-04-27T15:50:13;97907.19;;;20.79;39.96
45939;BME280;31650;48.818;9.116;2023-04-27T16:05:13;97892.38;;;20.65;40.80
45939;BME280;31650;48.818;9.116;2023-04-27T16:20:13;97869.81;;;21.94;37.98
45939;BME280;31650;48.818;9.116;2023-04-27T16:35:14;97863.34;;;22.41;37.75
45939;BME280;31650;48.818;9.116;2023-04-27T16:50:14;97858.63;;;21.32;39.10
45939;BME280;31650;48.818;9.116;2023-04-27T17:05:14;97862.91;;;21.48;38.36
45939;BME280;31650;48.818;9.116;2023-04-27T17:20:15;97867.41;;;17.61;46.41
45939;BME280;31650;48.818;9.116;2023-04-27T17:35:16;97887.81;;;15.76;52.42
45939;BME280;31650;48.818;9.116;2023-04-27T17:50:19;97871.03;;;15.29;53.31
45939;BME280;31650;48.818;9.116;2023-04-27T18:05:19;97870.13;;;14.67;55.28
45939;BME280;31650;48.818;9.116;2023-04-27T18:20:19;97892.94;;;13.99;56.24
45939;BME280;31650;48.818;9.116;2023-04-27T18:35:20;97895.03;;;13.16;59.80
45939;BME280;31650;48.818;9.116;2023-04-27T18:50:21;97886.66;;;12.28;63.27
45939;BME280;31650;48.818;9.116;2023-04-27T19:05:21;97894.94;;;11.91;65.97
45939;BME280;31650;48.818;9.116;2023-04-27T19:20:21;97904.84;;;11.86;65.62
45939;BME280;31650;48.818;9.116;2023-04-27T19:35:21;97907.91;;;11.22;70.92
45939;BME280;31650;48.818;9.116;2023-04-27T19:50:22;97892.50;;;11.16;71.09
45939;BME280;31650;48.818;9.116;2023-04-27T20:05:23;97893.69;;;11.57;69.24
45939;BME280;31650;48.818;9.116;2023-04-27T20:20:23;97894.22;;;11.11;72.36
45939;BME280;31650;48.818;9.116;2023-04-27T20:35:23;97884.50;;;10.53;78.26
45939;BME280;31650;48.818;9.116;2023-04-27T20:50:23;97886.16;;;10.22;87.49
45939;BME280;31650;48.818;9.116;2023-04-27T21:05:24;97863.25;;;10.18;91.49
45939;BME280;31650;48.818;9.116;2023-04-27T21:20:24;97848.34;;;9.95;96.98
45939;BME280;31650;48.818;9.116;2023-04-27T21:35:25;97839.25;;;9.76;100.00
45939;BME280;31650;48.818;9.116;2023-04-27T21:50:25;97812.00;;;10.21;96.34
45939;BME280;31650;48.818;9.116;2023-04-27T22:05:26;97814.28;;;9.68;98.05
45939;BME280;31650;48.818;9.116;2023-04-27T22:20:28;97812.88;;;9.13;100.00
45939;BME280;31650;48.818;9.116;2023-04-27T22:35:28;97812.38;;;9.36;100.00
45939;BME280;31650;48.818;9.116;2023-04-27T22:50:28;97799.25;;;9.27;100.00
45939;BME280;31650;48.818;9.116;2023-04-27T23:05:28;97800.16;;;9.52;99.05
45939;BME280;31650;48.818;9.116;2023-04-27T23:20:29;97805.69;;;9.32;100.00
45939;BME280;31650;48.818;9.116;2023-04-27T23:35:29;97779.88;;;9.93;95.85
45939;BME280;31650;48.818;9.116;2023-04-27T23:50:30;97737.06;;;10.76;84.91
